Fresno Yosemite International Airport
KFAT : now visible

Airfield :











YOU CAN JOIN US ON...

 
LOGIN :

Register | Disclaimer

   EN    FR    IT 

 









Legend :    VFR   Marginal VFR   IFR   Intensive IFR   Very Intensive IFR
Visi :
Ceiling :
>= 8 km
>= 3000ft
5 to 8 km
1000 to 3000 ft
1500m to 5 km
500 to 1000 ft
800 to 1500m
200 to 500 ft
< 800m
< 200 ft
Symbols :   Thunderstorms  Fog  Heavy snow  Heavy precipitations  Wind > 20 kt






- Airport Elevation : 336 ft
- IATA code : FAT


KFAT - Fresno Yosemite International

CURRENT METAR :
  • 181953Z 27008KT 10SM FEW070 26/04 A3002 RMK AO2 SLP160 MTNS OBSC HZ DSNT N-E-S T02610044

EXPIRED METARs :
  • 181853Z 10SM CLR 25/05 A3004 RMK AO2 SLP169 MTNS OBSC HZ DSNT N-E-S T02500050
  • 181753Z 31006KT 10SM CLR 23/06 A3005 RMK AO2 SLP172 MTNS OBSC HZ DSNT N-E-S T02330061 10233 20144 58004

TAF KFAT
Valid from the 18 at 18:00 until the 19 at 18:00 UTC


181720Z 1818/1918 30007KT P6SM SKC
FM182100 32011G17KT P6SM SKC
FM190300 32014G25KT P6SM SKC
FM191000 32009KT P6SM SKC
KZOA FIR / North America



MET'MAP, your aeronautical weather chart ! - Copyright ORBIFLY December 2007 - Disclaimer

ORBIFLY MET'MAP TEAM :

Programming & Development : Alexandra Zaïnal
Concept & original design : Baudouin d'Aumeries
Assistance for programming : Marc-Olivier Méhu
Technical & hardware support : Manuel Goepfert

Contact : metmap@orbifly.com




SOURCES & CREDITS :

   NOAA       Earth
Advisory